sensor_id;sensor_type;location;lat;lon;timestamp;pressure;altitude;pressure_sealevel;temperature;humidity
47054;BME280;32811;52.382;5.270;2023-05-19T00:00:33;102917.00;;;7.95;100.00
47054;BME280;32811;52.382;5.270;2023-05-19T00:03:02;102911.59;;;7.88;100.00
47054;BME280;32811;52.382;5.270;2023-05-19T00:05:30;102904.66;;;7.87;100.00
47054;BME280;32811;52.382;5.270;2023-05-19T00:07:58;102907.31;;;7.89;100.00
47054;BME280;32811;52.382;5.270;2023-05-19T00:10:26;102897.69;;;7.85;100.00
47054;BME280;32811;52.382;5.270;2023-05-19T00:12:57;102898.75;;;7.88;100.00
47054;BME280;32811;52.382;5.270;2023-05-19T00:15:24;102897.78;;;7.86;100.00
47054;BME280;32811;52.382;5.270;2023-05-19T00:17:51;102902.75;;;7.83;100.00
47054;BME280;32811;52.382;5.270;2023-05-19T00:20:17;102903.50;;;7.81;100.00
47054;BME280;32811;52.382;5.270;2023-05-19T00:22:44;102909.38;;;7.78;100.00
47054;BME280;32811;52.382;5.270;2023-05-19T00:25:11;102904.13;;;7.77;100.00
47054;BME280;32811;52.382;5.270;2023-05-19T00:27:37;102900.88;;;7.79;100.00
47054;BME280;32811;52.382;5.270;2023-05-19T00:30:04;102897.34;;;7.77;100.00
47054;BME280;32811;52.382;5.270;2023-05-19T00:32:31;102896.16;;;7.71;100.00
47054;BME280;32811;52.382;5.270;2023-05-19T00:34:58;102900.31;;;7.68;100.00
47054;BME280;32811;52.382;5.270;2023-05-19T00:37:25;102907.09;;;7.66;100.00
47054;BME280;32811;52.382;5.270;2023-05-19T00:39:51;102899.19;;;7.63;100.00
47054;BME280;32811;52.382;5.270;2023-05-19T00:42:19;102903.41;;;7.61;100.00
47054;BME280;32811;52.382;5.270;2023-05-19T00:44:46;102899.72;;;7.56;100.00
47054;BME280;32811;52.382;5.270;2023-05-19T00:47:13;102892.00;;;7.56;100.00
47054;BME280;32811;52.382;5.270;2023-05-19T00:49:39;102897.59;;;7.65;100.00
47054;BME280;32811;52.382;5.270;2023-05-19T00:52:06;102886.34;;;7.63;100.00
47054;BME280;32811;52.382;5.270;2023-05-19T00:54:33;102888.91;;;7.63;100.00
47054;BME280;32811;52.382;5.270;2023-05-19T00:57:00;102885.25;;;7.58;100.00
47054;BME280;32811;52.382;5.270;2023-05-19T00:59:26;102894.00;;;7.62;100.00
47054;BME280;32811;52.382;5.270;2023-05-19T01:01:53;102891.50;;;7.63;100.00
47054;BME280;32811;52.382;5.270;2023-05-19T01:04:20;102896.50;;;7.60;100.00
47054;BME280;32811;52.382;5.270;2023-05-19T01:06:47;102891.03;;;7.54;100.00
47054;BME280;32811;52.382;5.270;2023-05-19T01:09:16;102897.78;;;7.52;100.00
47054;BME280;32811;52.382;5.270;2023-05-19T01:11:43;102893.38;;;7.49;100.00
47054;BME280;32811;52.382;5.270;2023-05-19T01:14:10;102892.38;;;7.46;100.00
47054;BME280;32811;52.382;5.270;2023-05-19T01:16:40;102884.47;;;7.43;100.00
47054;BME280;32811;52.382;5.270;2023-05-19T01:22:16;102880.72;;;7.36;100.00
47054;BME280;32811;52.382;5.270;2023-05-19T01:30:52;102873.84;;;7.35;100.00
47054;BME280;32811;52.382;5.270;2023-05-19T01:33:55;102838.25;;;7.09;100.00
47054;BME280;32811;52.382;5.270;2023-05-19T01:37:36;102840.91;;;7.10;100.00
47054;BME280;32811;52.382;5.270;2023-05-19T01:43:50;102822.06;;;6.93;100.00
47054;BME280;32811;52.382;5.270;2023-05-19T01:47:31;102822.78;;;6.91;100.00
47054;BME280;32811;52.382;5.270;2023-05-19T01:50:58;102862.53;;;7.15;100.00
47054;BME280;32811;52.382;5.270;2023-05-19T01:54:11;102816.53;;;6.85;100.00
47054;BME280;32811;52.382;5.270;2023-05-19T02:10:18;102819.28;;;6.72;100.00
47054;BME280;32811;52.382;5.270;2023-05-19T02:13:05;102859.19;;;7.00;100.00
47054;BME280;32811;52.382;5.270;2023-05-19T02:15:48;102841.06;;;6.80;100.00
47054;BME280;32811;52.382;5.270;2023-05-19T02:18:27;102807.63;;;6.62;100.00
47054;BME280;32811;52.382;5.270;2023-05-19T02:20:59;102815.50;;;6.65;100.00
47054;BME280;32811;52.382;5.270;2023-05-19T02:23:47;102826.16;;;6.73;100.00
47054;BME280;32811;52.382;5.270;2023-05-19T02:26:50;102810.91;;;6.60;100.00
47054;BME280;32811;52.382;5.270;2023-05-19T02:29:30;102810.78;;;6.57;100.00
47054;BME280;32811;52.382;5.270;2023-05-19T02:32:15;102814.34;;;6.60;100.00
47054;BME280;32811;52.382;5.270;2023-05-19T02:34:53;102804.72;;;6.56;100.00
47054;BME280;32811;52.382;5.270;2023-05-19T02:37:25;102820.88;;;6.70;100.00
47054;BME280;32811;52.382;5.270;2023-05-19T02:39:57;102806.59;;;6.59;100.00
47054;BME280;32811;52.382;5.270;2023-05-19T02:42:29;102803.06;;;6.57;100.00
47054;BME280;32811;52.382;5.270;2023-05-19T02:45:10;102794.31;;;6.53;100.00
47054;BME280;32811;52.382;5.270;2023-05-19T02:47:38;102797.22;;;6.59;100.00
47054;BME280;32811;52.382;5.270;2023-05-19T02:50:27;102807.63;;;6.62;100.00
47054;BME280;32811;52.382;5.270;2023-05-19T02:53:03;102818.72;;;6.61;100.00
47054;BME280;32811;52.382;5.270;2023-05-19T02:55:45;102799.06;;;6.46;100.00
47054;BME280;32811;52.382;5.270;2023-05-19T02:58:33;102783.00;;;6.33;100.00
47054;BME280;32811;52.382;5.270;2023-05-19T03:01:12;102803.38;;;6.47;100.00
47054;BME280;32811;52.382;5.270;2023-05-19T03:03:42;102799.69;;;6.41;100.00
47054;BME280;32811;52.382;5.270;2023-05-19T03:06:20;102808.34;;;6.43;100.00
47054;BME280;32811;52.382;5.270;2023-05-19T03:09:03;102778.44;;;6.28;100.00
47054;BME280;32811;52.382;5.270;2023-05-19T03:11:48;102795.09;;;6.36;100.00
47054;BME280;32811;52.382;5.270;2023-05-19T03:15:15;102783.50;;;6.26;100.00
47054;BME280;32811;52.382;5.270;2023-05-19T03:18:28;102807.22;;;6.38;100.00
47054;BME280;32811;52.382;5.270;2023-05-19T03:21:23;102794.88;;;6.31;100.00
47054;BME280;32811;52.382;5.270;2023-05-19T03:24:07;102803.38;;;6.30;100.00
47054;BME280;32811;52.382;5.270;2023-05-19T03:30:22;102770.72;;;6.11;100.00
47054;BME280;32811;52.382;5.270;2023-05-19T03:33:41;102789.50;;;6.27;100.00
47054;BME280;32811;52.382;5.270;2023-05-19T03:36:23;102774.00;;;6.25;100.00
47054;BME280;32811;52.382;5.270;2023-05-19T03:39:09;102826.81;;;6.53;100.00
47054;BME280;32811;52.382;5.270;2023-05-19T03:42:08;102797.91;;;6.40;100.00
47054;BME280;32811;52.382;5.270;2023-05-19T03:44:46;102770.91;;;6.31;100.00
47054;BME280;32811;52.382;5.270;2023-05-19T03:47:31;102772.50;;;6.29;100.00
47054;BME280;32811;52.382;5.270;2023-05-19T03:51:06;102773.38;;;6.29;100.00
47054;BME280;32811;52.382;5.270;2023-05-19T03:54:03;102771.63;;;6.28;100.00
47054;BME280;32811;52.382;5.270;2023-05-19T03:57:42;102810.53;;;6.52;100.00
47054;BME280;32811;52.382;5.270;2023-05-19T04:01:15;102774.03;;;6.41;100.00
47054;BME280;32811;52.382;5.270;2023-05-19T04:12:15;102765.25;;;6.36;100.00
47054;BME280;32811;52.382;5.270;2023-05-19T04:15:45;102819.28;;;6.72;100.00
47054;BME280;32811;52.382;5.270;2023-05-19T04:19:08;102776.28;;;6.52;100.00
47054;BME280;32811;52.382;5.270;2023-05-19T04:26:12;102829.66;;;6.92;100.00
47054;BME280;32811;52.382;5.270;2023-05-19T04:29:29;102783.97;;;6.68;100.00
47054;BME280;32811;52.382;5.270;2023-05-19T04:32:25;102802.75;;;6.83;100.00
47054;BME280;32811;52.382;5.270;2023-05-19T04:35:27;102808.97;;;6.89;100.00
47054;BME280;32811;52.382;5.270;2023-05-19T04:38:47;102786.53;;;6.84;100.00
47054;BME280;32811;52.382;5.270;2023-05-19T04:41:48;102836.38;;;7.22;100.00
47054;BME280;32811;52.382;5.270;2023-05-19T04:44:51;102792.59;;;7.03;100.00
47054;BME280;32811;52.382;5.270;2023-05-19T04:48:38;102825.53;;;7.28;100.00
47054;BME280;32811;52.382;5.270;2023-05-19T04:51:34;102785.09;;;7.07;100.00
47054;BME280;32811;52.382;5.270;2023-05-19T04:54:27;102804.81;;;7.25;100.00
47054;BME280;32811;52.382;5.270;2023-05-19T04:57:12;102811.09;;;7.30;100.00
47054;BME280;32811;52.382;5.270;2023-05-19T05:00:23;102780.59;;;7.20;100.00
47054;BME280;32811;52.382;5.270;2023-05-19T05:06:23;102784.00;;;7.55;100.00
47054;BME280;32811;52.382;5.270;2023-05-19T05:10:05;102826.94;;;8.11;100.00
47054;BME280;32811;52.382;5.270;2023-05-19T05:13:31;102784.03;;;8.29;100.00
47054;BME280;32811;52.382;5.270;2023-05-19T05:16:19;102782.03;;;8.61;100.00
47054;BME280;32811;52.382;5.270;2023-05-19T05:18:48;102778.09;;;9.10;100.00
47054;BME280;32811;52.382;5.270;2023-05-19T05:21:23;102796.50;;;9.61;100.00
47054;BME280;32811;52.382;5.270;2023-05-19T05:23:50;102829.91;;;10.02;100.00
47054;BME280;32811;52.382;5.270;2023-05-19T05:26:20;102811.13;;;10.28;100.00
47054;BME280;32811;52.382;5.270;2023-05-19T05:28:54;102832.66;;;10.51;100.00
47054;BME280;32811;52.382;5.270;2023-05-19T05:31:21;102791.69;;;10.36;100.00
47054;BME280;32811;52.382;5.270;2023-05-19T05:33:55;102795.94;;;10.58;100.00
47054;BME280;32811;52.382;5.270;2023-05-19T05:36:22;102812.56;;;11.16;100.00
47054;BME280;32811;52.382;5.270;2023-05-19T05:38:56;102820.16;;;11.37;100.00
47054;BME280;32811;52.382;5.270;2023-05-19T05:41:27;102779.22;;;11.51;100.00
47054;BME280;32811;52.382;5.270;2023-05-19T05:44:06;102786.81;;;11.47;100.00
47054;BME280;32811;52.382;5.270;2023-05-19T05:46:33;102831.25;;;11.88;100.00
47054;BME280;32811;52.382;5.270;2023-05-19T05:49:02;102807.63;;;12.04;100.00
47054;BME280;32811;52.382;5.270;2023-05-19T05:51:32;102823.78;;;12.56;100.00
47054;BME280;32811;52.382;5.270;2023-05-19T05:54:05;102814.91;;;12.48;100.00
47054;BME280;32811;52.382;5.270;2023-05-19T05:56:33;102797.63;;;12.46;100.00
47054;BME280;32811;52.382;5.270;2023-05-19T05:59:03;102796.00;;;12.83;100.00
47054;BME280;32811;52.382;5.270;2023-05-19T06:01:31;102776.06;;;12.79;100.00
47054;BME280;32811;52.382;5.270;2023-05-19T06:04:01;102797.06;;;12.58;100.00
47054;BME280;32811;52.382;5.270;2023-05-19T06:06:32;102796.91;;;12.84;100.00
47054;BME280;32811;52.382;5.270;2023-05-19T06:09:04;102805.47;;;13.15;100.00
47054;BME280;32811;52.382;5.270;2023-05-19T06:11:32;102789.78;;;13.08;100.00
47054;BME280;32811;52.382;5.270;2023-05-19T06:14:02;102791.75;;;13.19;100.00
47054;BME280;32811;52.382;5.270;2023-05-19T06:16:36;102790.66;;;13.44;100.00
47054;BME280;32811;52.382;5.270;2023-05-19T06:19:07;102822.69;;;13.44;100.00
47054;BME280;32811;52.382;5.270;2023-05-19T06:21:40;102819.94;;;13.38;100.00
47054;BME280;32811;52.382;5.270;2023-05-19T06:24:09;102796.59;;;13.76;100.00
47054;BME280;32811;52.382;5.270;2023-05-19T06:26:37;102805.84;;;14.03;100.00
47054;BME280;32811;52.382;5.270;2023-05-19T06:29:04;102812.91;;;14.10;100.00
47054;BME280;32811;52.382;5.270;2023-05-19T06:31:43;102806.22;;;14.21;100.00
47054;BME280;32811;52.382;5.270;2023-05-19T06:34:44;102795.03;;;14.24;100.00
47054;BME280;32811;52.382;5.270;2023-05-19T06:38:13;102814.25;;;14.32;100.00
47054;BME280;32811;52.382;5.270;2023-05-19T06:41:15;102811.69;;;14.33;100.00
47054;BME280;32811;52.382;5.270;2023-05-19T06:44:49;102798.25;;;14.12;100.00
47054;BME280;32811;52.382;5.270;2023-05-19T06:48:19;102804.56;;;14.66;100.00
47054;BME280;32811;52.382;5.270;2023-05-19T06:51:31;102810.56;;;14.63;100.00
47054;BME280;32811;52.382;5.270;2023-05-19T06:54:38;102806.25;;;15.12;100.00
47054;BME280;32811;52.382;5.270;2023-05-19T07:01:23;102809.50;;;15.52;100.00
47054;BME280;32811;52.382;5.270;2023-05-19T07:04:12;102801.44;;;15.35;100.00
47054;BME280;32811;52.382;5.270;2023-05-19T07:06:52;102812.28;;;15.10;100.00
47054;BME280;32811;52.382;5.270;2023-05-19T07:09:22;102792.84;;;15.41;100.00
47054;BME280;32811;52.382;5.270;2023-05-19T07:11:52;102804.09;;;15.39;100.00
47054;BME280;32811;52.382;5.270;2023-05-19T07:14:22;102775.38;;;15.32;100.00
47054;BME280;32811;52.382;5.270;2023-05-19T07:16:54;102767.50;;;15.87;100.00
47054;BME280;32811;52.382;5.270;2023-05-19T07:19:24;102795.91;;;16.34;100.00
47054;BME280;32811;52.382;5.270;2023-05-19T07:21:51;102760.22;;;16.29;100.00
47054;BME280;32811;52.382;5.270;2023-05-19T07:24:17;102785.59;;;16.44;100.00
47054;BME280;32811;52.382;5.270;2023-05-19T07:26:48;102780.63;;;16.68;100.00
47054;BME280;32811;52.382;5.270;2023-05-19T07:29:15;102784.34;;;16.89;100.00
47054;BME280;32811;52.382;5.270;2023-05-19T07:31:44;102798.22;;;16.88;99.39
47054;BME280;32811;52.382;5.270;2023-05-19T07:34:20;102758.25;;;16.86;97.68
47054;BME280;32811;52.382;5.270;2023-05-19T07:36:56;102764.47;;;17.01;97.52
47054;BME280;32811;52.382;5.270;2023-05-19T07:39:25;102775.81;;;17.10;98.14
47054;BME280;32811;52.382;5.270;2023-05-19T07:42:10;102798.63;;;17.31;97.47
47054;BME280;32811;52.382;5.270;2023-05-19T07:45:17;102797.13;;;17.70;92.61
47054;BME280;32811;52.382;5.270;2023-05-19T07:48:35;102798.13;;;17.82;93.71
47054;BME280;32811;52.382;5.270;2023-05-19T07:51:13;102786.72;;;17.79;90.44
47054;BME280;32811;52.382;5.270;2023-05-19T07:53:41;102798.81;;;17.61;91.74
47054;BME280;32811;52.382;5.270;2023-05-19T07:56:14;102797.13;;;17.70;85.96
47054;BME280;32811;52.382;5.270;2023-05-19T07:58:44;102796.09;;;17.48;84.28
47054;BME280;32811;52.382;5.270;2023-05-19T08:01:23;102779.47;;;17.29;93.48
47054;BME280;32811;52.382;5.270;2023-05-19T08:04:22;102790.03;;;17.49;90.04
47054;BME280;32811;52.382;5.270;2023-05-19T08:06:54;102792.72;;;17.61;86.68
47054;BME280;32811;52.382;5.270;2023-05-19T08:09:21;102787.53;;;17.66;90.36
47054;BME280;32811;52.382;5.270;2023-05-19T08:11:58;102746.66;;;17.74;84.53
47054;BME280;32811;52.382;5.270;2023-05-19T08:14:26;102757.00;;;17.57;88.57
47054;BME280;32811;52.382;5.270;2023-05-19T08:16:53;102756.69;;;17.09;84.51
47054;BME280;32811;52.382;5.270;2023-05-19T08:19:20;102738.91;;;16.70;92.38
47054;BME280;32811;52.382;5.270;2023-05-19T08:22:00;102759.06;;;16.85;96.08
47054;BME280;32811;52.382;5.270;2023-05-19T08:24:48;102737.31;;;16.83;100.00
47054;BME280;32811;52.382;5.270;2023-05-19T08:27:40;102774.94;;;17.09;90.31
47054;BME280;32811;52.382;5.270;2023-05-19T08:30:07;102748.19;;;17.41;93.84
47054;BME280;32811;52.382;5.270;2023-05-19T08:32:47;102757.88;;;17.59;85.26
47054;BME280;32811;52.382;5.270;2023-05-19T08:35:15;102730.22;;;17.95;86.54
47054;BME280;32811;52.382;5.270;2023-05-19T08:37:51;102766.06;;;18.22;92.71
47054;BME280;32811;52.382;5.270;2023-05-19T08:40:33;102741.34;;;17.61;89.78
47054;BME280;32811;52.382;5.270;2023-05-19T08:43:03;102750.09;;;17.68;88.15
47054;BME280;32811;52.382;5.270;2023-05-19T08:45:34;102731.97;;;17.93;86.18
47054;BME280;32811;52.382;5.270;2023-05-19T08:48:03;102703.03;;;17.56;83.91
47054;BME280;32811;52.382;5.270;2023-05-19T08:50:38;102700.63;;;17.87;81.53
47054;BME280;32811;52.382;5.270;2023-05-19T08:53:13;102722.47;;;18.12;82.05
47054;BME280;32811;52.382;5.270;2023-05-19T08:56:29;102750.38;;;18.17;76.59
47054;BME280;32811;52.382;5.270;2023-05-19T08:59:02;102706.50;;;17.49;75.76
47054;BME280;32811;52.382;5.270;2023-05-19T09:01:31;102689.03;;;17.40;78.12
47054;BME280;32811;52.382;5.270;2023-05-19T09:03:58;102705.25;;;16.96;75.39
47054;BME280;32811;52.382;5.270;2023-05-19T09:06:29;102703.03;;;17.51;76.39
47054;BME280;32811;52.382;5.270;2023-05-19T09:08:57;102719.81;;;18.01;76.79
47054;BME280;32811;52.382;5.270;2023-05-19T09:11:28;102711.81;;;17.75;74.00
47054;BME280;32811;52.382;5.270;2023-05-19T09:13:54;102731.72;;;17.47;73.98
47054;BME280;32811;52.382;5.270;2023-05-19T09:16:24;102693.28;;;17.26;69.72
47054;BME280;32811;52.382;5.270;2023-05-19T09:18:57;102731.50;;;17.19;71.64
47054;BME280;32811;52.382;5.270;2023-05-19T09:21:28;102722.91;;;17.29;68.13
47054;BME280;32811;52.382;5.270;2023-05-19T09:24:05;102702.25;;;17.66;73.66
47054;BME280;32811;52.382;5.270;2023-05-19T09:26:40;102705.84;;;17.91;71.90
47054;BME280;32811;52.382;5.270;2023-05-19T09:29:19;102690.28;;;18.22;73.30
47054;BME280;32811;52.382;5.270;2023-05-19T09:31:54;102719.91;;;18.39;71.05
47054;BME280;32811;52.382;5.270;2023-05-19T09:34:27;102719.06;;;18.59;70.18
47054;BME280;32811;52.382;5.270;2023-05-19T09:36:54;102704.25;;;18.38;68.63
47054;BME280;32811;52.382;5.270;2023-05-19T09:39:22;102686.78;;;18.26;66.44
47054;BME280;32811;52.382;5.270;2023-05-19T09:41:53;102685.81;;;17.99;68.59
47054;BME280;32811;52.382;5.270;2023-05-19T09:44:25;102697.91;;;17.74;70.83
47054;BME280;32811;52.382;5.270;2023-05-19T09:46:55;102729.50;;;18.27;71.34
47054;BME280;32811;52.382;5.270;2023-05-19T09:49:23;102706.88;;;18.59;68.24
47054;BME280;32811;52.382;5.270;2023-05-19T09:51:55;102698.09;;;18.28;66.16
47054;BME280;32811;52.382;5.270;2023-05-19T09:54:24;102685.03;;;18.30;64.20
47054;BME280;32811;52.382;5.270;2023-05-19T09:57:01;102733.81;;;18.26;59.18
47054;BME280;32811;52.382;5.270;2023-05-19T09:59:33;102732.03;;;18.05;56.71
47054;BME280;32811;52.382;5.270;2023-05-19T10:02:04;102727.78;;;18.42;56.33
47054;BME280;32811;52.382;5.270;2023-05-19T10:04:31;102708.66;;;18.88;58.54
47054;BME280;32811;52.382;5.270;2023-05-19T10:07:03;102722.59;;;18.73;56.28
47054;BME280;32811;52.382;5.270;2023-05-19T10:09:32;102717.34;;;18.76;58.27
47054;BME280;32811;52.382;5.270;2023-05-19T10:12:09;102725.22;;;19.15;56.30
47054;BME280;32811;52.382;5.270;2023-05-19T10:14:39;102727.81;;;18.62;52.30
47054;BME280;32811;52.382;5.270;2023-05-19T10:17:11;102717.41;;;18.78;53.75
47054;BME280;32811;52.382;5.270;2023-05-19T10:19:42;102678.13;;;18.53;55.92
47054;BME280;32811;52.382;5.270;2023-05-19T10:22:12;102707.75;;;18.63;50.76
47054;BME280;32811;52.382;5.270;2023-05-19T10:24:51;102672.00;;;18.56;51.50
47054;BME280;32811;52.382;5.270;2023-05-19T10:27:19;102665.03;;;18.67;52.97
47054;BME280;32811;52.382;5.270;2023-05-19T10:29:49;102688.63;;;18.78;53.12
47054;BME280;32811;52.382;5.270;2023-05-19T10:32:26;102658.94;;;18.93;53.37
47054;BME280;32811;52.382;5.270;2023-05-19T10:41:15;102660.63;;;19.17;51.45
47054;BME280;32811;52.382;5.270;2023-05-19T10:46:47;102687.72;;;18.96;51.76
47054;BME280;32811;52.382;5.270;2023-05-19T10:49:21;102642.41;;;18.80;52.09
47054;BME280;32811;52.382;5.270;2023-05-19T10:51:50;102636.25;;;18.56;51.90
47054;BME280;32811;52.382;5.270;2023-05-19T10:54:39;102658.06;;;18.60;52.73
47054;BME280;32811;52.382;5.270;2023-05-19T10:57:26;102659.81;;;19.07;53.22
47054;BME280;32811;52.382;5.270;2023-05-19T11:00:29;102662.44;;;18.62;52.88
47054;BME280;32811;52.382;5.270;2023-05-19T11:03:44;102672.03;;;18.85;55.86
47054;BME280;32811;52.382;5.270;2023-05-19T11:06:33;102643.22;;;18.37;53.82
47054;BME280;32811;52.382;5.270;2023-05-19T11:09:15;102665.91;;;18.49;54.46
47054;BME280;32811;52.382;5.270;2023-05-19T11:12:10;102661.53;;;18.97;53.29
47054;BME280;32811;52.382;5.270;2023-05-19T11:14:38;102671.13;;;19.09;50.89
47054;BME280;32811;52.382;5.270;2023-05-19T11:17:13;102651.09;;;18.66;52.05
47054;BME280;32811;52.382;5.270;2023-05-19T11:19:51;102639.75;;;18.57;51.98
47054;BME280;32811;52.382;5.270;2023-05-19T11:22:42;102675.50;;;18.79;52.95
47054;BME280;32811;52.382;5.270;2023-05-19T11:25:55;102659.81;;;18.87;53.50
47054;BME280;32811;52.382;5.270;2023-05-19T11:28:53;102633.66;;;18.67;52.47
47054;BME280;32811;52.382;5.270;2023-05-19T11:31:31;102640.63;;;18.93;53.09
47054;BME280;32811;52.382;5.270;2023-05-19T11:34:05;102637.06;;;19.15;52.90
47054;BME280;32811;52.382;5.270;2023-05-19T11:36:35;102638.84;;;19.16;50.48
47054;BME280;32811;52.382;5.270;2023-05-19T11:39:17;102643.19;;;19.14;51.65
47054;BME280;32811;52.382;5.270;2023-05-19T11:41:45;102663.22;;;19.24;49.87
47054;BME280;32811;52.382;5.270;2023-05-19T11:44:30;102643.16;;;19.23;52.38
47054;BME280;32811;52.382;5.270;2023-05-19T11:47:26;102638.75;;;19.33;53.21
47054;BME280;32811;52.382;5.270;2023-05-19T11:50:20;102619.63;;;19.14;54.82
47054;BME280;32811;52.382;5.270;2023-05-19T11:52:49;102656.31;;;19.03;57.09
47054;BME280;32811;52.382;5.270;2023-05-19T11:55:50;102641.47;;;19.05;56.34
47054;BME280;32811;52.382;5.270;2023-05-19T11:58:53;102651.78;;;19.61;53.30
47054;BME280;32811;52.382;5.270;2023-05-19T12:01:53;102621.31;;;19.31;52.75
47054;BME280;32811;52.382;5.270;2023-05-19T12:04:24;102638.91;;;18.81;54.84
47054;BME280;32811;52.382;5.270;2023-05-19T12:07:37;102649.31;;;18.27;55.74
47054;BME280;32811;52.382;5.270;2023-05-19T12:10:30;102631.81;;;17.84;55.09
47054;BME280;32811;52.382;5.270;2023-05-19T12:13:00;102647.53;;;18.04;54.92
47054;BME280;32811;52.382;5.270;2023-05-19T12:15:41;102651.09;;;18.40;55.86
47054;BME280;32811;52.382;5.270;2023-05-19T12:18:29;102644.97;;;18.49;56.80
47054;BME280;32811;52.382;5.270;2023-05-19T12:21:06;102604.00;;;18.16;58.53
47054;BME280;32811;52.382;5.270;2023-05-19T12:23:33;102613.59;;;18.44;60.63
47054;BME280;32811;52.382;5.270;2023-05-19T12:26:02;102624.91;;;18.62;57.38
47054;BME280;32811;52.382;5.270;2023-05-19T12:28:29;102602.28;;;18.22;55.15
47054;BME280;32811;52.382;5.270;2023-05-19T12:30:57;102601.41;;;18.42;56.91
47054;BME280;32811;52.382;5.270;2023-05-19T12:33:24;102597.91;;;18.37;57.92
47054;BME280;32811;52.382;5.270;2023-05-19T12:35:52;102610.09;;;18.55;58.79
47054;BME280;32811;52.382;5.270;2023-05-19T12:38:20;102582.22;;;18.41;59.69
47054;BME280;32811;52.382;5.270;2023-05-19T12:40:48;102596.16;;;18.63;57.04
47054;BME280;32811;52.382;5.270;2023-05-19T12:43:20;102590.94;;;18.60;59.86
47054;BME280;32811;52.382;5.270;2023-05-19T12:45:48;102576.13;;;18.49;60.72
47054;BME280;32811;52.382;5.270;2023-05-19T12:48:16;102598.78;;;18.42;59.79
47054;BME280;32811;52.382;5.270;2023-05-19T12:50:43;102599.63;;;18.19;60.04
47054;BME280;32811;52.382;5.270;2023-05-19T12:53:11;102579.59;;;17.86;60.92
47054;BME280;32811;52.382;5.270;2023-05-19T12:55:46;102585.63;;;17.77;60.09
47054;BME280;32811;52.382;5.270;2023-05-19T12:58:14;102627.53;;;18.16;61.77
47054;BME280;32811;52.382;5.270;2023-05-19T13:00:43;102590.84;;;17.77;62.08
47054;BME280;32811;52.382;5.270;2023-05-19T13:03:44;102627.50;;;18.07;59.53
47054;BME280;32811;52.382;5.270;2023-05-19T13:06:24;102631.00;;;18.25;60.52
47054;BME280;32811;52.382;5.270;2023-05-19T13:09:36;102618.81;;;18.55;60.46
47054;BME280;32811;52.382;5.270;2023-05-19T13:12:20;102601.41;;;18.46;60.31
47054;BME280;32811;52.382;5.270;2023-05-19T13:14:59;102588.28;;;18.62;60.42
47054;BME280;32811;52.382;5.270;2023-05-19T13:17:28;102607.50;;;18.73;58.42
47054;BME280;32811;52.382;5.270;2023-05-19T13:19:58;102597.03;;;18.67;59.33
47054;BME280;32811;52.382;5.270;2023-05-19T13:22:51;102598.78;;;18.43;58.78
47054;BME280;32811;52.382;5.270;2023-05-19T13:25:19;102572.63;;;18.25;59.10
47054;BME280;32811;52.382;5.270;2023-05-19T13:28:24;102573.50;;;18.15;60.37
47054;BME280;32811;52.382;5.270;2023-05-19T13:30:53;102609.25;;;18.31;59.47
47054;BME280;32811;52.382;5.270;2023-05-19T13:33:25;102575.25;;;18.00;59.07
47054;BME280;32811;52.382;5.270;2023-05-19T13:35:52;102597.03;;;18.13;58.49
47054;BME280;32811;52.382;5.270;2023-05-19T13:38:27;102591.78;;;18.10;60.85
47054;BME280;32811;52.382;5.270;2023-05-19T13:41:01;102598.78;;;18.28;60.62
47054;BME280;32811;52.382;5.270;2023-05-19T13:43:28;102604.88;;;18.30;59.00
47054;BME280;32811;52.382;5.270;2023-05-19T13:45:57;102595.28;;;18.23;57.57
47054;BME280;32811;52.382;5.270;2023-05-19T13:48:29;102599.63;;;18.05;58.64
47054;BME280;32811;52.382;5.270;2023-05-19T13:50:58;102589.19;;;18.04;56.52
47054;BME280;32811;52.382;5.270;2023-05-19T13:53:31;102583.09;;;18.11;56.38
47054;BME280;32811;52.382;5.270;2023-05-19T13:56:19;102582.22;;;18.37;57.30
47054;BME280;32811;52.382;5.270;2023-05-19T13:59:34;102583.97;;;18.27;56.30
47054;BME280;32811;52.382;5.270;2023-05-19T14:02:29;102603.13;;;18.55;58.54
47054;BME280;32811;52.382;5.270;2023-05-19T14:04:56;102583.94;;;18.64;57.93
47054;BME280;32811;52.382;5.270;2023-05-19T14:07:35;102582.22;;;18.44;56.04
47054;BME280;32811;52.382;5.270;2023-05-19T14:10:16;102584.84;;;18.35;56.88
47054;BME280;32811;52.382;5.270;2023-05-19T14:12:55;102573.53;;;18.38;56.47
47054;BME280;32811;52.382;5.270;2023-05-19T14:15:52;102576.09;;;18.61;54.08
47054;BME280;32811;52.382;5.270;2023-05-19T14:18:24;102570.00;;;18.50;53.60
47054;BME280;32811;52.382;5.270;2023-05-19T14:21:30;102581.34;;;18.41;55.48
47054;BME280;32811;52.382;5.270;2023-05-19T14:24:26;102573.50;;;18.45;53.98
47054;BME280;32811;52.382;5.270;2023-05-19T14:27:06;102576.13;;;18.36;52.54
47054;BME280;32811;52.382;5.270;2023-05-19T14:29:38;102566.53;;;18.40;53.78
47054;BME280;32811;52.382;5.270;2023-05-19T14:32:19;102552.59;;;18.45;56.78
47054;BME280;32811;52.382;5.270;2023-05-19T14:35:37;102563.91;;;18.80;58.48
47054;BME280;32811;52.382;5.270;2023-05-19T14:38:59;102563.03;;;18.81;56.69
47054;BME280;32811;52.382;5.270;2023-05-19T14:42:07;102556.88;;;18.99;57.41
47054;BME280;32811;52.382;5.270;2023-05-19T14:44:58;102544.69;;;18.88;58.64
47054;BME280;32811;52.382;5.270;2023-05-19T14:47:32;102547.31;;;18.79;61.38
47054;BME280;32811;52.382;5.270;2023-05-19T14:50:05;102544.75;;;18.47;59.29
47054;BME280;32811;52.382;5.270;2023-05-19T14:52:44;102540.41;;;18.38;59.81
47054;BME280;32811;52.382;5.270;2023-05-19T14:55:14;102549.13;;;18.36;58.17
47054;BME280;32811;52.382;5.270;2023-05-19T14:58:14;102548.25;;;18.38;60.77